createdAt,value
2022-08-26T00:02:59.661Z,24.50
2022-08-26T00:08:02.802Z,24.40
2022-08-26T00:13:07.480Z,24.40
2022-08-26T00:18:22.394Z,24.40
2022-08-26T00:23:26.251Z,24.30
2022-08-26T00:28:34.814Z,24.20
2022-08-26T00:33:37.161Z,24.20
2022-08-26T00:38:39.504Z,24.10
2022-08-26T00:43:47.362Z,24.10
2022-08-26T00:48:56.458Z,24.10
2022-08-26T00:54:02.245Z,24.00
2022-08-26T00:59:08.652Z,24.00
2022-08-26T01:04:11.954Z,24.00
2022-08-26T01:09:14.320Z,23.90
2022-08-26T01:14:20.912Z,23.80
2022-08-26T01:19:27.363Z,23.80
2022-08-26T01:24:31.817Z,23.80
2022-08-26T01:29:36.289Z,23.70
2022-08-26T01:34:40.084Z,23.70
2022-08-26T01:39:47.446Z,23.60
2022-08-26T01:44:53.996Z,23.60
2022-08-26T01:49:58.915Z,23.50
2022-08-26T01:55:02.902Z,23.40
2022-08-26T02:00:09.399Z,23.40
2022-08-26T02:05:15.187Z,23.30
2022-08-26T02:10:19.724Z,23.10
2022-08-26T02:15:23.657Z,22.90
2022-08-26T02:20:26.590Z,22.70
2022-08-26T02:25:35.554Z,22.50
2022-08-26T02:30:40.448Z,22.40
2022-08-26T02:35:42.850Z,22.30
2022-08-26T02:40:46.743Z,22.20
2022-08-26T02:45:50.801Z,22.10
2022-08-26T02:50:53.163Z,22.10
2022-08-26T02:55:56.959Z,22.10
2022-08-26T03:01:02.529Z,22.00
2022-08-26T03:06:07.650Z,21.90
2022-08-26T03:11:13.447Z,21.80
2022-08-26T03:16:17.135Z,21.60
2022-08-26T03:21:19.979Z,21.60
2022-08-26T03:26:23.866Z,21.60
2022-08-26T03:31:26.392Z,21.60
2022-08-26T03:36:29.282Z,21.60
2022-08-26T03:41:34.166Z,21.60
2022-08-26T03:46:37.824Z,21.60
2022-08-26T03:51:42.183Z,21.70
2022-08-26T03:56:46.580Z,21.70
2022-08-26T04:01:49.139Z,21.60
2022-08-26T04:06:57.090Z,21.60
2022-08-26T04:12:01.408Z,21.60
2022-08-26T04:17:06.240Z,21.60
2022-08-26T04:22:08.494Z,21.60
2022-08-26T04:27:13.715Z,21.60
2022-08-26T04:44:49.686Z,21.40
2022-08-26T04:50:32.725Z,21.30
2022-08-26T04:55:39.741Z,21.30
2022-08-26T05:24:43.392Z,22.10
2022-08-26T05:29:55.346Z,22.80
2022-08-26T05:35:00.259Z,23.30
2022-08-26T05:40:09.144Z,23.50
2022-08-26T05:45:15.176Z,23.50
2022-08-26T12:57:35.771Z,27.50
2022-08-26T14:41:17.832Z,29.00
2022-08-26T14:46:19.636Z,28.90
2022-08-26T14:51:22.123Z,28.70
2022-08-26T14:56:28.357Z,28.60
2022-08-26T15:01:31.225Z,28.50
2022-08-26T15:06:35.119Z,28.40
2022-08-26T15:11:39.326Z,28.20
2022-08-26T15:16:41.784Z,28.10
2022-08-26T15:21:44.518Z,28.00
2022-08-26T15:26:48.832Z,27.90
2022-08-26T15:31:51.535Z,27.90
2022-08-26T15:36:57.831Z,27.70
2022-08-26T15:42:02.134Z,27.60
2022-08-26T15:47:04.730Z,27.40
2022-08-26T15:52:07.844Z,27.30
2022-08-26T15:57:13.627Z,27.10
2022-08-26T16:02:18.146Z,27.00
2022-08-26T16:07:20.775Z,26.80
2022-08-26T16:12:24.632Z,26.70
2022-08-26T16:17:28.584Z,26.60
2022-08-26T16:22:31.420Z,26.50
2022-08-26T16:27:37.235Z,26.40
2022-08-26T16:32:39.619Z,26.30
2022-08-26T16:37:42.908Z,26.20
2022-08-26T16:42:46.790Z,26.20
2022-08-26T16:47:49.981Z,26.10
2022-08-26T16:52:55.575Z,26.00
2022-08-26T16:58:00.130Z,25.90
2022-08-26T17:03:02.851Z,25.80
2022-08-26T17:08:05.631Z,25.70
2022-08-26T17:13:09.548Z,25.60
2022-08-26T17:18:12.135Z,25.50
2022-08-26T17:23:15.069Z,25.40
2022-08-26T17:28:20.473Z,25.20
2022-08-26T17:33:24.821Z,25.10
2022-08-26T17:38:28.123Z,25.10
2022-08-26T17:43:32.038Z,25.00
2022-08-26T17:48:34.644Z,24.90
2022-08-26T17:53:37.131Z,24.80
2022-08-26T17:58:51.162Z,24.70
2022-08-26T18:04:00.186Z,24.50
2022-08-26T18:09:04.256Z,24.50
2022-08-26T18:14:08.126Z,24.50
2022-08-26T18:19:10.501Z,24.40
2022-08-26T18:24:14.265Z,24.40
2022-08-26T18:29:19.821Z,24.30
2022-08-26T18:34:22.635Z,24.30
2022-08-26T18:39:27.351Z,24.30
2022-08-26T18:44:31.126Z,24.20
2022-08-26T18:49:33.643Z,24.20
2022-08-26T18:54:36.937Z,24.20
2022-08-26T18:59:40.851Z,24.10
2022-08-26T19:04:43.298Z,24.10
2022-08-26T19:09:45.620Z,24.00
2022-08-26T19:14:49.594Z,24.00
2022-08-26T19:19:51.914Z,24.00
2022-08-26T19:24:54.453Z,23.90
2022-08-26T19:29:59.200Z,23.80
2022-08-26T19:35:01.807Z,23.80
2022-08-26T19:40:06.327Z,23.70
2022-08-26T19:45:24.841Z,23.70
2022-08-26T19:50:30.274Z,23.70
2022-08-26T19:55:32.913Z,23.70
2022-08-26T20:00:36.912Z,23.70
2022-08-26T20:05:39.877Z,23.70
2022-08-26T20:10:42.334Z,23.70
2022-08-26T20:15:47.577Z,23.70
2022-08-26T20:20:49.958Z,23.60
2022-08-26T20:25:55.025Z,23.60
2022-08-26T20:30:59.165Z,23.60
2022-08-26T20:36:03.685Z,23.50
2022-08-26T20:41:11.727Z,23.50
2022-08-26T20:46:17.974Z,23.50
2022-08-26T20:51:23.045Z,23.50
2022-08-26T20:56:27.765Z,23.40
2022-08-26T21:01:35.921Z,23.40
2022-08-26T21:06:42.323Z,23.40
2022-08-26T21:12:03.595Z,23.40
2022-08-26T21:17:11.205Z,23.40
2022-08-26T21:22:15.008Z,23.30
2022-08-26T21:27:23.059Z,23.30
2022-08-26T21:32:33.383Z,23.30
2022-08-26T21:37:35.873Z,23.30
2022-08-26T21:42:38.274Z,23.20
2022-08-26T21:47:42.176Z,23.20
2022-08-26T21:52:44.607Z,23.20
2022-08-26T21:57:46.969Z,23.10
2022-08-26T22:02:51.576Z,23.20
2022-08-26T22:07:54.170Z,23.10
2022-08-26T22:12:56.504Z,23.10
2022-08-26T22:30:08.408Z,23.00
2022-08-26T22:35:28.350Z,22.90
2022-08-26T22:40:31.515Z,22.90
2022-08-26T22:45:40.024Z,22.80
2022-08-26T22:50:42.512Z,22.80
2022-08-26T22:55:45.775Z,22.70
2022-08-26T23:00:49.678Z,22.70
2022-08-26T23:05:54.669Z,22.60
2022-08-26T23:10:57.004Z,22.50
2022-08-26T23:16:06.675Z,22.40
2022-08-26T23:21:10.289Z,22.20
2022-08-26T23:26:16.706Z,22.10
2022-08-26T23:31:21.680Z,22.00
2022-08-26T23:36:24.038Z,22.00
2022-08-26T23:41:27.573Z,21.90
2022-08-26T23:46:31.911Z,21.80
2022-08-26T23:51:34.238Z,21.80
2022-08-26T23:56:38.238Z,21.70
